Time;durP1;ratioP1;P1;durP2;ratioP2;P2;SDS_P1;SDS_P2;PMS_P1;PMS_P2;Temp;Humidity;BMP_temperature;BMP_pressure;BME280_temperature;BME280_humidity;BME280_pressure;Samples;Min_cycle;Max_cycle;Signal;HPM_P1;HPM_P2
2021/01/07 00:01:17;;;;;;;33.22;17.25;;;1.10;99.90;;;;;;5061968;28;20505;-48
2021/01/07 00:03:43;;;;;;;34.08;17.08;;;1.10;99.90;;;;;;5064233;28;20135;-47
2021/01/07 00:06:13;;;;;;;33.22;16.70;;;1.10;99.90;;;;;;5059316;28;20035;-47
2021/01/07 00:08:39;;;;;;;31.75;16.35;;;1.10;99.90;;;;;;5058749;28;20045;-47
2021/01/07 00:11:05;;;;;;;36.50;17.50;;;1.10;99.90;;;;;;5064578;28;20079;-49
2021/01/07 00:13:31;;;;;;;31.45;16.20;;;1.10;99.90;;;;;;5061714;28;20018;-47
2021/01/07 00:15:57;;;;;;;30.77;17.58;;;1.10;99.90;;;;;;5062771;28;20068;-47
2021/01/07 00:18:22;;;;;;;27.75;15.10;;;1.10;99.90;;;;;;5058420;28;20394;-47
2021/01/07 00:20:48;;;;;;;30.73;15.63;;;1.10;99.90;;;;;;5059010;28;20023;-47
2021/01/07 00:23:14;;;;;;;25.75;14.50;;;1.10;99.90;;;;;;5062780;28;20021;-47
2021/01/07 00:25:46;;;;;;;28.20;15.15;;;1.10;99.90;;;;;;5062917;28;20064;-48
2021/01/07 00:28:11;;;;;;;27.90;14.38;;;1.10;99.90;;;;;;5063574;28;20293;-49
2021/01/07 00:30:37;;;;;;;24.13;13.63;;;1.10;99.90;;;;;;5061937;28;20389;-46
2021/01/07 00:33:03;;;;;;;25.52;12.85;;;1.10;99.90;;;;;;5065085;28;20107;-49
2021/01/07 00:35:28;;;;;;;26.38;14.23;;;1.10;99.90;;;;;;5062071;28;20165;-48
2021/01/07 00:37:53;;;;;;;25.17;12.77;;;1.10;99.90;;;;;;5060774;28;20025;-46
2021/01/07 00:40:19;;;;;;;26.10;14.02;;;1.10;99.90;;;;;;5064528;28;20370;-46
2021/01/07 00:42:44;;;;;;;24.15;13.32;;;1.10;99.90;;;;;;5053969;28;20108;-49
2021/01/07 00:45:10;;;;;;;25.98;13.63;;;1.10;99.90;;;;;;5028081;28;20038;-46
2021/01/07 00:47:36;;;;;;;22.65;12.20;;;1.10;99.90;;;;;;5031663;28;20028;-49
2021/01/07 00:50:01;;;;;;;28.70;14.95;;;1.10;99.90;;;;;;5046519;28;20029;-47
2021/01/07 00:52:27;;;;;;;28.48;14.85;;;1.10;99.90;;;;;;5063895;28;20135;-48
2021/01/07 00:54:52;;;;;;;27.08;14.00;;;1.10;99.90;;;;;;5047455;28;20081;-47
2021/01/07 00:57:18;;;;;;;27.20;14.38;;;1.10;99.90;;;;;;5048386;28;20025;-46
2021/01/07 00:59:44;;;;;;;25.58;13.95;;;1.10;99.90;;;;;;5046797;28;20033;-48
2021/01/07 01:02:09;;;;;;;24.63;13.48;;;1.10;99.90;;;;;;5048333;28;20020;-48
2021/01/07 01:04:35;;;;;;;22.98;13.18;;;1.10;99.90;;;;;;5048174;28;20032;-47
2021/01/07 01:07:00;;;;;;;25.88;13.40;;;1.00;99.90;;;;;;5047767;28;20110;-46
2021/01/07 01:09:26;;;;;;;24.20;13.27;;;1.10;99.90;;;;;;5038248;28;20482;-47
2021/01/07 01:11:52;;;;;;;28.63;14.35;;;1.10;99.90;;;;;;5047848;28;20013;-50
2021/01/07 01:14:20;;;;;;;22.15;12.70;;;1.10;99.90;;;;;;5046813;28;20035;-48
2021/01/07 01:16:47;;;;;;;27.08;14.35;;;1.10;99.90;;;;;;5047510;28;20381;-48
2021/01/07 01:19:14;;;;;;;22.95;12.75;;;1.10;99.90;;;;;;5046959;28;20063;-48
2021/01/07 01:21:39;;;;;;;24.50;13.35;;;1.10;99.90;;;;;;5046890;28;20469;-46
2021/01/07 01:24:05;;;;;;;24.05;12.82;;;1.10;99.90;;;;;;5047241;28;20115;-47
2021/01/07 01:26:31;;;;;;;22.52;12.90;;;1.10;99.90;;;;;;5046930;28;20111;-46
2021/01/07 01:28:56;;;;;;;23.27;12.82;;;1.10;99.90;;;;;;5046848;28;20112;-50
2021/01/07 01:31:22;;;;;;;21.25;13.07;;;1.10;99.90;;;;;;5045606;28;20512;-46
2021/01/07 01:33:47;;;;;;;22.83;12.90;;;1.10;99.90;;;;;;5047086;28;20024;-48
2021/01/07 01:36:13;;;;;;;22.58;12.90;;;1.10;99.90;;;;;;5045681;28;20037;-48
2021/01/07 01:38:39;;;;;;;22.55;12.98;;;1.20;99.90;;;;;;5046982;28;20025;-47
2021/01/07 01:41:05;;;;;;;23.25;13.65;;;1.20;99.90;;;;;;5047884;28;20028;-47
2021/01/07 01:43:33;;;;;;;29.10;13.98;;;1.20;99.90;;;;;;5046964;28;20090;-49
2021/01/07 01:45:58;;;;;;;21.83;12.95;;;1.20;99.90;;;;;;5046252;28;20039;-46
2021/01/07 01:48:26;;;;;;;23.60;13.40;;;1.20;99.90;;;;;;5046292;28;20180;-49
2021/01/07 01:50:51;;;;;;;22.92;12.25;;;1.20;99.90;;;;;;5046034;28;20040;-46
2021/01/07 01:53:17;;;;;;;22.60;12.30;;;1.20;99.90;;;;;;5047302;28;20098;-46
2021/01/07 01:55:42;;;;;;;22.65;12.93;;;1.20;99.90;;;;;;5047211;28;20524;-46
2021/01/07 01:58:11;;;;;;;22.77;12.10;;;1.20;99.90;;;;;;5045617;28;21611;-47
2021/01/07 02:00:37;;;;;;;22.30;12.60;;;1.20;99.90;;;;;;5045972;28;20028;-46
2021/01/07 02:03:08;;;;;;;23.17;13.10;;;1.20;99.90;;;;;;5046212;28;20037;-46
2021/01/07 02:05:35;;;;;;;22.75;12.35;;;1.20;99.90;;;;;;5045827;28;20100;-46
2021/01/07 02:08:03;;;;;;;19.88;11.35;;;1.20;99.90;;;;;;5046887;28;20490;-46
2021/01/07 02:10:33;;;;;;;23.98;13.63;;;1.20;99.90;;;;;;5036566;28;20036;-48
2021/01/07 02:12:59;;;;;;;22.80;12.77;;;1.20;99.90;;;;;;5038174;28;20147;-49
2021/01/07 02:15:25;;;;;;;23.48;12.07;;;1.20;99.90;;;;;;5047347;28;20029;-47
2021/01/07 02:17:50;;;;;;;21.92;12.65;;;1.20;99.90;;;;;;5046445;28;20040;-46
2021/01/07 02:20:23;;;;;;;22.60;12.52;;;1.20;99.90;;;;;;5047275;28;20067;-46
2021/01/07 02:22:53;;;;;;;20.90;11.88;;;1.20;99.90;;;;;;5047523;28;20060;-47
2021/01/07 02:25:18;;;;;;;19.70;11.77;;;1.20;99.90;;;;;;5062795;28;20045;-48
2021/01/07 02:27:44;;;;;;;20.23;11.50;;;1.20;99.90;;;;;;5047583;28;20069;-47
2021/01/07 02:30:10;;;;;;;19.88;11.35;;;1.20;99.90;;;;;;5046752;28;20271;-47
2021/01/07 02:32:35;;;;;;;19.13;10.68;;;1.20;99.90;;;;;;5046090;28;20040;-48
2021/01/07 02:35:01;;;;;;;21.02;12.43;;;1.20;99.90;;;;;;5045044;28;20440;-51
2021/01/07 02:37:26;;;;;;;18.65;10.55;;;1.20;99.90;;;;;;5045311;28;20107;-49
2021/01/07 02:39:52;;;;;;;18.23;10.60;;;1.20;99.90;;;;;;5046633;28;20108;-50
2021/01/07 02:42:17;;;;;;;19.75;10.48;;;1.20;99.90;;;;;;5043126;28;20494;-47
2021/01/07 02:44:43;;;;;;;18.02;9.95;;;1.20;99.90;;;;;;5029668;28;20088;-50
2021/01/07 02:47:08;;;;;;;19.08;10.63;;;1.20;99.90;;;;;;5042788;28;20509;-48
2021/01/07 02:49:34;;;;;;;20.92;11.80;;;1.20;99.90;;;;;;5047329;28;20033;-46
2021/01/07 02:51:59;;;;;;;19.55;11.25;;;1.20;99.90;;;;;;5046255;28;20117;-47
2021/01/07 02:54:24;;;;;;;20.20;11.63;;;1.20;99.90;;;;;;5046002;28;20040;-50
2021/01/07 02:56:50;;;;;;;19.90;11.82;;;1.20;99.90;;;;;;5047406;28;20400;-47
2021/01/07 02:59:15;;;;;;;20.98;11.88;;;1.30;99.90;;;;;;5065166;28;20127;-47
2021/01/07 03:01:41;;;;;;;21.60;11.50;;;1.20;99.90;;;;;;5064688;28;20020;-48
2021/01/07 03:04:06;;;;;;;20.98;12.07;;;1.20;99.90;;;;;;5046251;28;20484;-47
2021/01/07 03:06:32;;;;;;;19.92;11.88;;;1.20;99.90;;;;;;5045487;28;20041;-47
2021/01/07 03:08:57;;;;;;;20.77;11.73;;;1.30;99.90;;;;;;5046951;28;20033;-47
2021/01/07 03:11:23;;;;;;;21.75;12.32;;;1.30;99.90;;;;;;5036469;28;20032;-47
2021/01/07 03:13:49;;;;;;;21.02;11.93;;;1.30;99.90;;;;;;5045343;28;20043;-47
2021/01/07 03:16:14;;;;;;;21.23;12.48;;;1.20;99.90;;;;;;5050361;28;20464;-50
2021/01/07 03:18:40;;;;;;;20.40;11.75;;;1.20;99.90;;;;;;5050012;28;20033;-47
2021/01/07 03:21:05;;;;;;;21.88;12.32;;;1.20;99.90;;;;;;5050164;28;20017;-48
2021/01/07 03:23:31;;;;;;;20.95;12.38;;;1.20;99.90;;;;;;5049398;28;20037;-46
2021/01/07 03:25:57;;;;;;;25.63;13.10;;;1.20;99.90;;;;;;5049922;28;20095;-48
2021/01/07 03:43:23;;;;;;;27.60;13.48;;;1.20;99.90;;;;;;5048314;28;20082;-49
2021/01/07 03:45:49;;;;;;;20.98;11.75;;;1.20;99.90;;;;;;5049420;28;20086;-47
2021/01/07 03:48:16;;;;;;;22.50;12.75;;;1.20;99.90;;;;;;5048265;28;20060;-49
2021/01/07 03:50:41;;;;;;;25.05;13.48;;;1.20;99.90;;;;;;5049628;28;20036;-48
2021/01/07 03:53:07;;;;;;;20.50;11.50;;;1.20;99.90;;;;;;5049258;28;20037;-47
2021/01/07 03:55:32;;;;;;;24.48;12.57;;;1.20;99.90;;;;;;5049035;28;20382;-48
2021/01/07 03:57:59;;;;;;;22.67;12.15;;;1.20;99.90;;;;;;5048293;28;20094;-50
2021/01/07 04:00:25;;;;;;;21.10;11.85;;;1.10;99.90;;;;;;5049926;28;20062;-47
2021/01/07 04:02:51;;;;;;;20.88;11.50;;;1.20;99.90;;;;;;5048968;28;20020;-48
2021/01/07 04:05:16;;;;;;;21.83;12.60;;;1.20;99.90;;;;;;5049441;28;20036;-48
2021/01/07 04:07:41;;;;;;;23.25;11.77;;;1.20;99.90;;;;;;5045796;28;20037;-50
2021/01/07 04:10:08;;;;;;;22.48;12.13;;;1.20;99.90;;;;;;5054249;28;20116;-48
2021/01/07 04:12:35;;;;;;;21.65;11.15;;;1.10;99.90;;;;;;5055493;28;20090;-50
2021/01/07 04:15:05;;;;;;;23.02;12.15;;;1.10;99.90;;;;;;5060177;28;20453;-47
2021/01/07 04:17:31;;;;;;;;;;;1.10;99.90;;;;;;5063342;28;20028;-49
2021/01/07 04:19:56;;;;;;;20.23;11.38;;;1.10;99.90;;;;;;5064274;28;19912;-47
2021/01/07 04:22:22;;;;;;;19.95;11.18;;;1.10;99.90;;;;;;5063073;28;20107;-47
2021/01/07 04:24:48;;;;;;;20.13;10.75;;;1.10;99.90;;;;;;5064361;28;20036;-46
2021/01/07 04:27:13;;;;;;;19.63;11.02;;;1.00;99.90;;;;;;5066319;28;20033;-50
2021/01/07 04:29:39;;;;;;;20.13;10.68;;;1.10;99.90;;;;;;5066490;28;20021;-46
2021/01/07 04:32:04;;;;;;;25.35;12.70;;;1.10;99.90;;;;;;5067541;28;20286;-48
2021/01/07 04:34:30;;;;;;;26.20;11.38;;;1.00;99.90;;;;;;5062486;28;20021;-49
2021/01/07 04:36:55;;;;;;;19.90;11.07;;;1.00;99.90;;;;;;5059231;28;20108;-47
2021/01/07 04:39:21;;;;;;;21.40;11.70;;;1.00;99.90;;;;;;5063791;28;20387;-47
2021/01/07 04:41:46;;;;;;;22.08;11.80;;;1.00;99.90;;;;;;5058773;28;20025;-47
2021/01/07 04:44:12;;;;;;;19.63;10.38;;;1.00;99.90;;;;;;5067256;28;20062;-46
2021/01/07 04:46:38;;;;;;;20.30;10.40;;;1.00;99.90;;;;;;5061771;28;20031;-46
2021/01/07 04:49:03;;;;;;;18.05;10.32;;;1.00;99.90;;;;;;5066499;28;20051;-46
2021/01/07 04:51:29;;;;;;;21.38;11.00;;;1.00;99.90;;;;;;5064676;28;20024;-47
2021/01/07 04:53:54;;;;;;;17.90;10.20;;;1.00;99.90;;;;;;5064048;28;20040;-48
2021/01/07 04:56:20;;;;;;;19.30;10.40;;;1.00;99.90;;;;;;5061365;28;20031;-46
2021/01/07 04:58:45;;;;;;;18.73;9.90;;;1.00;99.90;;;;;;5057828;28;20465;-48
2021/01/07 05:01:12;;;;;;;18.10;9.40;;;1.00;99.90;;;;;;5062574;28;20036;-48
2021/01/07 05:03:38;;;;;;;18.27;10.50;;;1.10;99.90;;;;;;5059847;28;20541;-46
2021/01/07 05:06:03;;;;;;;17.65;10.40;;;1.00;99.90;;;;;;5063836;28;20021;-47
2021/01/07 05:08:30;;;;;;;17.85;9.90;;;1.00;99.90;;;;;;5065233;28;20485;-46
2021/01/07 05:10:56;;;;;;;18.85;9.48;;;1.00;99.90;;;;;;5052710;28;20025;-50
2021/01/07 05:13:23;;;;;;;18.17;9.45;;;1.10;99.90;;;;;;5061090;28;20098;-46
2021/01/07 05:15:49;;;;;;;20.40;9.98;;;1.10;99.90;;;;;;5060370;28;20018;-47
2021/01/07 05:18:15;;;;;;;17.30;9.70;;;1.00;99.90;;;;;;5066911;28;20070;-50
2021/01/07 05:20:41;;;;;;;17.27;9.25;;;1.00;99.90;;;;;;5059267;28;20029;-49
2021/01/07 05:23:08;;;;;;;14.82;9.05;;;1.00;99.90;;;;;;5060577;28;20051;-50
2021/01/07 05:25:38;;;;;;;13.15;8.30;;;1.00;99.90;;;;;;5060196;28;20104;-49
2021/01/07 05:28:04;;;;;;;16.23;9.50;;;1.10;99.90;;;;;;5061306;28;20036;-47
2021/01/07 05:30:32;;;;;;;15.43;9.15;;;1.00;99.90;;;;;;5064761;28;20021;-47
2021/01/07 05:33:06;;;;;;;16.35;9.63;;;1.00;99.90;;;;;;5065674;28;20016;-48
2021/01/07 05:35:33;;;;;;;18.52;9.90;;;1.00;99.90;;;;;;5057879;28;20078;-48
2021/01/07 05:38:00;;;;;;;18.13;9.75;;;1.00;99.90;;;;;;5060693;28;20403;-47
2021/01/07 05:40:26;;;;;;;20.70;9.95;;;1.00;99.90;;;;;;5055937;28;20051;-50
2021/01/07 05:42:58;;;;;;;18.23;10.07;;;1.00;99.90;;;;;;5058166;28;20020;-46
2021/01/07 05:45:33;;;;;;;20.88;10.88;;;1.00;99.90;;;;;;5055569;28;20349;-46
2021/01/07 05:47:59;;;;;;;22.55;10.98;;;1.00;99.90;;;;;;5054570;28;20021;-46
2021/01/07 05:50:28;;;;;;;22.63;11.02;;;1.00;99.90;;;;;;5062814;28;20025;-48
2021/01/07 05:52:55;;;;;;;21.67;10.93;;;1.00;99.90;;;;;;5063483;28;20039;-53
2021/01/07 05:55:22;;;;;;;23.85;10.48;;;1.00;99.90;;;;;;5063494;28;20045;-46
2021/01/07 05:57:47;;;;;;;20.92;11.13;;;1.00;99.90;;;;;;5067676;28;20107;-49
2021/01/07 06:00:17;;;;;;;20.40;11.02;;;1.00;99.90;;;;;;5066174;28;20112;-47
2021/01/07 06:02:45;;;;;;;19.45;10.27;;;1.00;99.90;;;;;;5049407;28;20056;-47
2021/01/07 06:05:12;;;;;;;21.13;11.65;;;1.00;99.90;;;;;;5043519;28;20033;-47
2021/01/07 06:07:38;;;;;;;27.35;12.32;;;0.90;99.90;;;;;;5046134;28;20072;-46
2021/01/07 06:10:06;;;;;;;20.17;11.52;;;0.90;99.90;;;;;;5046611;28;20021;-50
2021/01/07 06:12:32;;;;;;;28.33;13.38;;;1.00;99.90;;;;;;5045511;28;20021;-49
2021/01/07 06:15:09;;;;;;;21.05;11.25;;;1.00;99.90;;;;;;5037190;28;20036;-47
2021/01/07 06:17:35;;;;;;;24.40;11.55;;;1.00;99.90;;;;;;5044627;28;20478;-47
2021/01/07 06:20:01;;;;;;;23.00;11.35;;;1.00;99.90;;;;;;5045512;28;20549;-47
2021/01/07 06:22:29;;;;;;;25.02;12.27;;;1.00;99.90;;;;;;5047582;28;20482;-48
2021/01/07 06:24:56;;;;;;;23.95;11.60;;;1.00;99.90;;;;;;5046832;28;20028;-49
2021/01/07 06:27:33;;;;;;;24.65;12.35;;;1.00;99.90;;;;;;5047827;28;20048;-46
2021/01/07 06:30:07;;;;;;;26.55;12.80;;;1.00;99.90;;;;;;5046773;28;20612;-46
2021/01/07 06:32:34;;;;;;;26.85;12.45;;;1.00;99.90;;;;;;5041165;28;20039;-46
2021/01/07 06:34:59;;;;;;;25.48;13.02;;;1.00;99.90;;;;;;5044003;28;20086;-47
2021/01/07 06:37:33;;;;;;;26.63;13.13;;;1.00;99.90;;;;;;5043913;28;20394;-46
2021/01/07 06:40:00;;;;;;;26.75;12.65;;;0.90;99.90;;;;;;5046226;28;20137;-46
2021/01/07 06:42:28;;;;;;;25.55;13.45;;;1.00;99.90;;;;;;5045038;28;20029;-50
2021/01/07 06:44:56;;;;;;;26.10;12.05;;;1.00;99.90;;;;;;5047300;28;20028;-50
2021/01/07 06:47:21;;;;;;;27.48;12.68;;;1.00;99.90;;;;;;5046552;28;20028;-47
2021/01/07 06:49:51;;;;;;;30.23;14.88;;;1.00;99.90;;;;;;5051483;28;20036;-48
2021/01/07 06:52:23;;;;;;;28.30;13.57;;;1.00;99.90;;;;;;5049488;28;20031;-47
2021/01/07 06:54:49;;;;;;;25.27;12.60;;;1.00;99.90;;;;;;5049502;28;20315;-47
2021/01/07 06:57:16;;;;;;;25.60;12.38;;;1.00;99.90;;;;;;5049481;28;20107;-47
2021/01/07 06:59:57;;;;;;;24.98;12.77;;;1.00;99.90;;;;;;5051326;28;20028;-49
2021/01/07 07:02:23;;;;;;;32.65;13.98;;;1.00;99.90;;;;;;5065645;28;20440;-51
2021/01/07 07:04:58;;;;;;;23.48;13.43;;;1.00;99.90;;;;;;5049553;28;20033;-49
2021/01/07 07:07:39;;;;;;;24.83;13.40;;;1.10;99.90;;;;;;5050333;28;20052;-48
2021/01/07 07:10:17;;;;;;;25.67;12.52;;;1.00;99.90;;;;;;5050718;28;20056;-47
2021/01/07 07:12:46;;;;;;;24.85;12.82;;;1.00;99.90;;;;;;5049120;28;20029;-47
2021/01/07 07:15:13;;;;;;;27.85;12.75;;;1.00;99.90;;;;;;5046647;28;20487;-50
2021/01/07 07:17:39;;;;;;;22.92;12.98;;;1.00;99.90;;;;;;5046365;28;20120;-47
2021/01/07 07:20:08;;;;;;;23.77;12.60;;;1.00;99.90;;;;;;5050902;28;20071;-47
2021/01/07 07:22:44;;;;;;;26.52;13.20;;;1.00;99.90;;;;;;5050269;28;20236;-48
2021/01/07 07:25:11;;;;;;;25.08;13.18;;;1.00;99.90;;;;;;5049120;28;20025;-48
2021/01/07 07:27:50;;;;;;;27.70;13.63;;;1.00;99.90;;;;;;5049809;28;20021;-48
2021/01/07 07:30:35;;;;;;;26.38;12.93;;;1.00;99.90;;;;;;5050243;28;20584;-47
2021/01/07 07:33:01;;;;;;;23.40;12.13;;;1.00;99.90;;;;;;5049094;28;20045;-48
2021/01/07 07:35:28;;;;;;;28.90;13.52;;;1.00;99.90;;;;;;5049367;28;20037;-46
2021/01/07 07:37:54;;;;;;;26.75;14.48;;;1.00;99.90;;;;;;5049964;28;20025;-48
2021/01/07 07:40:31;;;;;;;27.15;13.35;;;1.00;99.90;;;;;;5048934;28;20043;-49
2021/01/07 07:42:58;;;;;;;28.48;13.25;;;1.00;99.90;;;;;;5048357;28;20036;-46
2021/01/07 07:45:25;;;;;;;29.75;13.70;;;1.00;99.90;;;;;;5049033;28;20244;-46
2021/01/07 07:47:50;;;;;;;28.42;13.90;;;1.10;99.90;;;;;;5049335;28;20028;-48
2021/01/07 07:50:28;;;;;;;27.95;14.30;;;1.10;99.90;;;;;;5050179;28;20102;-49
2021/01/07 07:53:11;;;;;;;27.38;13.63;;;1.10;99.90;;;;;;5048936;28;20029;-47
2021/01/07 07:55:43;;;;;;;28.25;13.85;;;1.00;99.90;;;;;;5047463;28;20490;-47
2021/01/07 07:58:11;;;;;;;25.00;13.40;;;1.00;99.90;;;;;;5043176;28;20032;-50
2021/01/07 08:00:37;;;;;;;26.85;13.70;;;1.00;99.90;;;;;;5052069;28;20146;-48
2021/01/07 08:03:03;;;;;;;27.77;14.40;;;1.00;99.90;;;;;;5064081;28;20109;-47
2021/01/07 08:05:30;;;;;;;25.92;13.65;;;1.00;99.90;;;;;;5070594;28;20024;-48
2021/01/07 08:07:57;;;;;;;22.25;12.23;;;1.00;99.90;;;;;;5060750;28;20083;-48
2021/01/07 08:10:23;;;;;;;28.02;12.90;;;1.00;99.90;;;;;;5048880;28;20036;-47
2021/01/07 08:12:51;;;;;;;25.38;11.90;;;1.10;99.90;;;;;;5046641;28;20029;-50
2021/01/07 08:15:29;;;;;;;21.83;11.27;;;1.10;99.90;;;;;;5050131;28;20116;-50
2021/01/07 08:17:56;;;;;;;20.70;12.15;;;1.10;99.90;;;;;;5046151;28;20158;-49
2021/01/07 08:20:27;;;;;;;21.45;10.80;;;1.10;99.90;;;;;;5030681;28;20406;-48
2021/01/07 08:22:54;;;;;;;20.75;11.07;;;1.10;99.90;;;;;;5039583;28;20039;-48
2021/01/07 08:25:28;;;;;;;23.75;11.60;;;1.10;99.90;;;;;;5050452;28;20174;-50
2021/01/07 08:27:59;;;;;;;20.08;10.85;;;1.10;99.90;;;;;;5049330;28;20072;-51
2021/01/07 08:30:25;;;;;;;;;;;1.10;99.90;;;;;;5048366;28;20040;-49
2021/01/07 08:32:51;;;;;;;18.20;10.25;;;1.10;99.90;;;;;;5047553;28;19913;-49
2021/01/07 08:35:20;;;;;;;19.15;11.00;;;1.20;99.90;;;;;;5044475;28;20417;-49
2021/01/07 08:37:46;;;;;;;20.10;10.95;;;1.20;99.90;;;;;;5047161;28;20029;-48
2021/01/07 08:40:12;;;;;;;18.17;10.40;;;1.20;99.90;;;;;;5061511;28;20039;-49
2021/01/07 08:42:39;;;;;;;19.85;10.98;;;1.20;99.90;;;;;;5064808;28;20020;-49
2021/01/07 08:45:06;;;;;;;23.05;11.10;;;1.20;99.90;;;;;;5062692;28;20032;-46
2021/01/07 08:47:32;;;;;;;21.75;10.95;;;1.20;99.90;;;;;;5064140;28;20029;-46
2021/01/07 08:50:11;;;;;;;20.02;10.82;;;1.20;99.90;;;;;;5060402;28;20149;-47
2021/01/07 08:52:56;;;;;;;24.50;12.15;;;1.20;99.90;;;;;;5062108;28;20028;-47
2021/01/07 08:55:47;;;;;;;21.67;11.65;;;1.20;99.90;;;;;;5061133;28;20465;-49
2021/01/07 08:58:19;;;;;;;;;;;1.20;99.90;;;;;;5061827;28;20024;-49
2021/01/07 09:00:48;;;;;;;22.02;11.50;;;1.20;99.90;;;;;;5070364;28;19999;-50
2021/01/07 09:03:13;;;;;;;21.63;12.65;;;1.30;99.90;;;;;;5053566;28;20053;-51
2021/01/07 09:05:39;;;;;;;19.50;11.85;;;1.20;99.90;;;;;;5048175;28;20065;-48
2021/01/07 09:08:08;;;;;;;23.77;12.90;;;1.30;99.90;;;;;;5048838;28;20627;-49
2021/01/07 09:10:34;;;;;;;21.27;12.25;;;1.30;99.90;;;;;;5046105;28;20083;-48
2021/01/07 09:13:13;;;;;;;20.90;12.27;;;1.30;99.90;;;;;;5046444;28;20465;-50
2021/01/07 09:15:40;;;;;;;21.25;11.70;;;1.30;99.90;;;;;;5049358;28;20033;-49
2021/01/07 09:18:05;;;;;;;21.95;12.20;;;1.30;99.90;;;;;;5045508;28;20029;-50
2021/01/07 09:20:33;;;;;;;22.52;11.90;;;1.40;99.90;;;;;;5045896;28;20033;-50
2021/01/07 09:23:04;;;;;;;22.63;13.00;;;1.40;99.90;;;;;;5045138;28;20024;-48
2021/01/07 09:25:29;;;;;;;19.67;10.52;;;1.40;99.90;;;;;;5047434;28;20100;-50
2021/01/07 09:27:56;;;;;;;21.75;11.45;;;1.40;99.90;;;;;;5046996;28;20078;-49
2021/01/07 09:30:22;;;;;;;22.35;11.65;;;1.30;99.90;;;;;;5047130;28;20053;-49
2021/01/07 09:32:47;;;;;;;22.30;11.68;;;1.30;99.90;;;;;;5044340;28;20179;-50
2021/01/07 09:35:13;;;;;;;23.73;12.23;;;1.30;99.90;;;;;;5046403;28;20025;-48
2021/01/07 09:37:38;;;;;;;22.92;12.73;;;1.40;99.90;;;;;;5043045;28;20502;-50
2021/01/07 09:40:05;;;;;;;23.13;11.73;;;1.40;99.90;;;;;;5047581;28;20482;-51
2021/01/07 09:42:32;;;;;;;19.42;11.65;;;1.40;99.90;;;;;;5045425;28;20041;-49
2021/01/07 09:45:03;;;;;;;21.73;11.85;;;1.40;99.90;;;;;;5046572;28;20052;-49
2021/01/07 09:47:29;;;;;;;20.98;11.85;;;1.40;99.90;;;;;;5046984;28;20450;-49
2021/01/07 09:49:56;;;;;;;18.55;11.45;;;1.40;99.90;;;;;;5046799;28;20040;-49
2021/01/07 09:52:22;;;;;;;17.50;10.98;;;1.30;99.90;;;;;;5046812;28;20506;-49
2021/01/07 09:54:49;;;;;;;19.25;11.77;;;1.40;99.90;;;;;;5043958;28;20134;-49
2021/01/07 09:57:14;;;;;;;23.35;11.93;;;1.40;99.90;;;;;;5046304;28;20456;-52
2021/01/07 09:59:40;;;;;;;23.00;12.23;;;1.40;99.90;;;;;;5047344;28;20064;-49
2021/01/07 10:02:08;;;;;;;20.83;10.75;;;1.40;99.90;;;;;;5046702;28;20430;-50
2021/01/07 10:04:34;;;;;;;23.85;11.30;;;1.40;99.90;;;;;;5046393;28;20033;-51
2021/01/07 10:07:01;;;;;;;17.52;10.63;;;1.40;99.90;;;;;;5046563;28;20398;-50
2021/01/07 10:09:26;;;;;;;17.63;10.07;;;1.40;99.90;;;;;;5047698;28;20114;-50
2021/01/07 10:11:57;;;;;;;17.98;10.50;;;1.50;99.90;;;;;;5045816;28;20039;-51
2021/01/07 10:14:23;;;;;;;18.92;11.63;;;1.50;99.90;;;;;;5047204;28;20033;-50
2021/01/07 10:16:57;;;;;;;20.42;10.30;;;1.50;99.90;;;;;;5047045;28;20065;-51
2021/01/07 10:19:25;;;;;;;20.40;12.25;;;1.50;99.90;;;;;;5033792;28;20036;-48
2021/01/07 10:21:59;;;;;;;16.70;10.00;;;1.60;99.90;;;;;;5046653;28;20267;-46
2021/01/07 10:24:25;;;;;;;20.17;10.60;;;1.60;99.90;;;;;;5048890;28;20512;-46
2021/01/07 10:26:57;;;;;;;14.48;9.05;;;1.60;99.90;;;;;;5049293;28;20037;-45
2021/01/07 10:29:22;;;;;;;16.35;9.85;;;1.60;99.90;;;;;;5047739;28;20052;-46
2021/01/07 10:31:48;;;;;;;16.73;9.27;;;1.70;99.90;;;;;;5054307;28;20481;-49
2021/01/07 10:34:15;;;;;;;32.33;11.23;;;1.60;99.90;;;;;;5045323;28;20051;-46
2021/01/07 10:36:41;;;;;;;15.15;9.73;;;1.70;99.90;;;;;;5046428;28;20367;-46
2021/01/07 10:39:06;;;;;;;17.52;10.00;;;1.70;99.90;;;;;;5041885;28;20505;-47
2021/01/07 10:41:35;;;;;;;15.95;9.57;;;1.60;99.90;;;;;;5037334;28;20029;-46
2021/01/07 10:44:04;;;;;;;17.45;9.88;;;1.70;99.90;;;;;;5045300;28;20021;-49
2021/01/07 10:46:34;;;;;;;19.17;10.45;;;1.70;99.90;;;;;;5031112;28;20018;-47
2021/01/07 10:49:01;;;;;;;18.42;11.20;;;1.70;99.90;;;;;;5051088;28;20025;-48
2021/01/07 10:51:37;;;;;;;18.00;10.40;;;1.80;99.90;;;;;;5049843;28;20031;-46
2021/01/07 10:54:20;;;;;;;19.88;10.02;;;1.80;99.90;;;;;;5049279;28;20129;-45
2021/01/07 10:57:09;;;;;;;15.18;9.95;;;1.90;99.90;;;;;;5050932;28;20108;-48
2021/01/07 11:00:03;;;;;;;16.60;8.65;;;1.90;99.90;;;;;;5047220;28;20497;-45
2021/01/07 11:02:43;;;;;;;14.77;8.40;;;2.00;99.90;;;;;;5050655;28;20385;-49
2021/01/07 11:05:14;;;;;;;15.90;9.35;;;1.90;99.90;;;;;;5050348;28;20021;-46
2021/01/07 11:07:52;;;;;;;16.92;8.90;;;1.90;99.90;;;;;;5046566;28;20389;-46
2021/01/07 11:10:18;;;;;;;12.40;8.43;;;2.00;99.90;;;;;;5050855;28;20055;-46
2021/01/07 11:12:57;;;;;;;13.82;8.18;;;2.00;99.90;;;;;;5047862;28;20118;-49
2021/01/07 11:15:26;;;;;;;15.85;9.63;;;2.10;99.90;;;;;;5050458;28;20500;-46
2021/01/07 11:18:10;;;;;;;11.98;8.38;;;2.10;99.90;;;;;;5049420;28;20051;-45
2021/01/07 11:20:41;;;;;;;14.20;8.32;;;2.20;99.90;;;;;;5046518;28;20504;-47
2021/01/07 11:23:07;;;;;;;;;;;2.20;99.90;;;;;;5043453;28;20021;-47
2021/01/07 11:25:34;;;;;;;13.75;7.70;;;2.20;99.90;;;;;;5048980;28;19909;-46
2021/01/07 11:28:00;;;;;;;15.23;8.95;;;2.20;99.90;;;;;;5047943;28;20064;-46
2021/01/07 11:30:27;;;;;;;13.38;8.13;;;2.20;99.90;;;;;;5048416;28;20047;-46
2021/01/07 11:32:53;;;;;;;16.15;9.30;;;2.20;99.90;;;;;;5044084;28;20036;-48
2021/01/07 11:35:19;;;;;;;13.57;9.07;;;2.20;99.90;;;;;;5048392;28;20115;-45
2021/01/07 11:38:01;;;;;;;12.77;8.38;;;2.20;99.90;;;;;;5050821;28;20105;-45
2021/01/07 11:40:31;;;;;;;13.38;9.20;;;2.20;99.90;;;;;;5049362;28;20025;-49
2021/01/07 11:43:15;;;;;;;11.52;8.00;;;2.30;99.90;;;;;;5047565;28;20021;-45
2021/01/07 11:45:44;;;;;;;10.05;7.40;;;2.30;99.90;;;;;;5049774;28;20111;-45
2021/01/07 11:48:10;;;;;;;12.73;8.82;;;2.30;99.90;;;;;;5049541;28;20029;-45
2021/01/07 11:50:42;;;;;;;12.82;7.75;;;2.30;99.90;;;;;;5049309;28;20041;-44
2021/01/07 11:53:09;;;;;;;10.90;7.30;;;2.40;99.90;;;;;;5058522;28;20375;-47
2021/01/07 11:55:35;;;;;;;10.63;7.28;;;2.30;99.90;;;;;;5048525;28;20021;-49
2021/01/07 11:58:02;;;;;;;11.02;6.93;;;2.40;99.90;;;;;;5048182;28;20021;-45
2021/01/07 12:00:28;;;;;;;10.60;7.20;;;2.40;99.90;;;;;;5044990;28;20051;-45
2021/01/07 12:02:56;;;;;;;11.75;7.97;;;2.40;99.90;;;;;;5048087;28;20711;-47
2021/01/07 12:05:24;;;;;;;10.82;6.95;;;2.30;99.90;;;;;;5047279;28;20393;-46
2021/01/07 12:08:16;;;;;;;10.05;6.80;;;2.40;99.90;;;;;;5049766;28;20025;-46
2021/01/07 12:10:44;;;;;;;9.80;7.00;;;2.30;99.90;;;;;;5043161;28;20536;-46
2021/01/07 12:13:20;;;;;;;9.68;6.57;;;2.30;99.90;;;;;;5046842;28;20196;-45
2021/01/07 12:15:49;;;;;;;10.35;6.65;;;2.30;99.90;;;;;;5046607;28;20631;-46
2021/01/07 12:18:16;;;;;;;10.80;7.20;;;2.30;99.90;;;;;;5048016;28;20388;-45
2021/01/07 12:20:46;;;;;;;10.43;6.63;;;2.30;99.90;;;;;;5047809;28;20430;-46
2021/01/07 12:23:13;;;;;;;11.60;6.85;;;2.30;99.90;;;;;;5047752;28;20037;-48
2021/01/07 12:25:39;;;;;;;8.27;6.03;;;2.40;99.90;;;;;;5047721;28;20013;-45
2021/01/07 12:28:06;;;;;;;9.90;6.57;;;2.40;99.90;;;;;;5046294;28;20428;-45
2021/01/07 12:30:37;;;;;;;9.48;5.72;;;2.40;99.90;;;;;;5048269;28;20021;-45
2021/01/07 12:33:33;;;;;;;8.65;5.85;;;2.40;99.90;;;;;;5044717;28;20029;-46
2021/01/07 12:36:12;;;;;;;8.73;5.55;;;2.40;99.90;;;;;;5044099;28;20498;-45
2021/01/07 12:39:03;;;;;;;8.02;5.85;;;2.50;99.90;;;;;;5047325;28;20017;-46
2021/01/07 12:41:37;;;;;;;8.63;6.38;;;2.50;99.90;;;;;;5043398;28;20064;-45
2021/01/07 12:44:08;;;;;;;9.68;6.07;;;2.50;99.90;;;;;;5051766;28;20022;-46
2021/01/07 12:46:41;;;;;;;11.90;6.50;;;2.60;99.90;;;;;;5059845;28;20028;-45
2021/01/07 12:49:07;;;;;;;9.45;6.47;;;2.60;99.90;;;;;;5068110;28;20025;-47
2021/01/07 12:51:33;;;;;;;8.88;6.13;;;2.60;99.90;;;;;;5069164;28;20032;-47
2021/01/07 12:53:59;;;;;;;8.60;6.40;;;2.70;99.90;;;;;;5051479;28;20029;-45
2021/01/07 12:56:29;;;;;;;9.75;7.03;;;2.80;99.90;;;;;;5046744;28;20590;-46
2021/01/07 12:58:59;;;;;;;8.68;6.22;;;2.80;99.90;;;;;;5028612;28;20378;-44
2021/01/07 13:01:36;;;;;;;8.35;5.70;;;2.80;99.90;;;;;;5030920;28;20036;-45